createdAt,value
2022-12-01T00:02:24.326Z,13.68
2022-12-01T00:04:51.023Z,13.80
2022-12-01T00:07:17.566Z,12.63
2022-12-01T00:10:02.717Z,13.65
2022-12-01T00:12:29.561Z,13.05
2022-12-01T00:15:01.068Z,13.52
2022-12-01T00:17:29.250Z,12.75
2022-12-01T00:19:57.071Z,12.50
2022-12-01T00:22:23.616Z,12.88
2022-12-01T00:24:51.608Z,12.55
2022-12-01T00:27:18.278Z,13.60
2022-12-01T00:29:46.041Z,14.60
2022-12-01T00:32:13.543Z,13.15
2022-12-01T00:34:40.397Z,12.95
2022-12-01T00:37:07.099Z,13.40
2022-12-01T00:39:33.797Z,13.40
2022-12-01T00:42:00.409Z,13.60
2022-12-01T00:44:27.073Z,13.55
2022-12-01T00:46:53.669Z,14.77
2022-12-01T00:49:20.277Z,13.98
2022-12-01T00:51:46.885Z,12.13
2022-12-01T00:54:13.705Z,14.73
2022-12-01T00:56:40.304Z,14.05
2022-12-01T00:59:07.009Z,12.65
2022-12-01T01:01:34.964Z,14.35
2022-12-01T01:04:01.658Z,13.23
2022-12-01T01:06:28.326Z,12.30
2022-12-01T01:08:54.993Z,13.07
2022-12-01T01:11:21.691Z,13.25
2022-12-01T01:13:48.339Z,13.40
2022-12-01T01:16:19.418Z,13.82
2022-12-01T01:18:46.164Z,14.15
2022-12-01T01:21:14.035Z,12.82
2022-12-01T01:23:41.095Z,12.70
2022-12-01T01:26:10.681Z,12.70
2022-12-01T01:28:37.436Z,14.07
2022-12-01T01:31:11.723Z,12.70
2022-12-01T01:33:38.550Z,12.70
2022-12-01T01:36:05.416Z,12.63
2022-12-01T01:38:32.526Z,12.00
2022-12-01T01:40:59.513Z,12.38
2022-12-01T01:43:41.456Z,13.80
2022-12-01T01:46:08.640Z,12.45
2022-12-01T01:48:36.549Z,12.93
2022-12-01T01:51:03.241Z,12.30
2022-12-01T01:53:30.705Z,11.68
2022-12-01T01:55:57.676Z,12.55
2022-12-01T01:58:24.885Z,11.65
2022-12-01T02:00:51.566Z,12.38
2022-12-01T02:03:19.188Z,11.57
2022-12-01T02:05:46.277Z,12.27
2022-12-01T02:08:13.102Z,10.98
2022-12-01T02:10:58.577Z,11.43
2022-12-01T02:13:43.617Z,11.82
2022-12-01T02:16:13.786Z,11.00
2022-12-01T02:18:51.762Z,12.52
2022-12-01T02:21:25.183Z,11.48
2022-12-01T02:23:51.800Z,12.32
2022-12-01T02:26:39.338Z,13.50
2022-12-01T02:29:09.067Z,12.95
2022-12-01T02:31:45.914Z,13.85
2022-12-01T02:34:12.563Z,13.95
2022-12-01T02:36:49.205Z,13.18
2022-12-01T02:39:23.732Z,14.82
2022-12-01T02:41:52.649Z,14.30
2022-12-01T02:44:22.403Z,14.63
2022-12-01T02:46:51.792Z,14.30
2022-12-01T02:49:24.342Z,14.07
2022-12-01T02:51:51.093Z,13.63
2022-12-01T02:54:18.430Z,14.68
2022-12-01T02:56:45.613Z,12.93
2022-12-01T02:59:14.817Z,13.57
2022-12-01T03:01:57.150Z,12.85
2022-12-01T03:04:29.887Z,12.95
2022-12-01T03:07:02.645Z,12.40
2022-12-01T03:09:41.192Z,11.80
2022-12-01T03:12:10.673Z,13.38
2022-12-01T03:14:44.843Z,12.27
2022-12-01T03:17:15.352Z,13.77
2022-12-01T03:19:44.175Z,12.85
2022-12-01T03:22:13.741Z,13.02
2022-12-01T03:24:42.417Z,12.68
2022-12-01T03:27:09.873Z,12.27
2022-12-01T03:29:39.964Z,11.13
2022-12-01T03:32:19.452Z,12.95
2022-12-01T03:34:50.008Z,12.38
2022-12-01T03:37:24.765Z,12.85
2022-12-01T03:40:00.025Z,12.85
2022-12-01T03:42:30.572Z,12.73
2022-12-01T03:44:59.192Z,11.52
2022-12-01T03:47:29.401Z,13.43
2022-12-01T03:49:56.487Z,12.65
2022-12-01T03:52:28.331Z,13.02
2022-12-01T03:55:17.902Z,12.98
2022-12-01T03:57:44.505Z,13.55
2022-12-01T04:00:11.687Z,13.48
2022-12-01T04:02:41.367Z,12.60
2022-12-01T04:05:09.331Z,13.80
2022-12-01T04:07:36.870Z,13.75
2022-12-01T04:10:04.130Z,14.43
2022-12-01T04:12:30.852Z,13.88
2022-12-01T04:14:57.819Z,14.25
2022-12-01T04:17:24.857Z,12.80
2022-12-01T04:19:51.645Z,13.30
2022-12-01T04:22:18.424Z,12.00
2022-12-01T04:24:45.460Z,14.05
2022-12-01T04:27:12.311Z,13.07
2022-12-01T04:29:38.969Z,13.43
2022-12-01T04:32:05.774Z,14.68
2022-12-01T04:34:32.347Z,14.32
2022-12-01T04:36:58.951Z,14.25
2022-12-01T04:39:25.586Z,13.43
2022-12-01T04:41:52.197Z,14.13
2022-12-01T04:44:18.866Z,13.73
2022-12-01T04:46:45.591Z,14.10
2022-12-01T04:49:12.282Z,13.75
2022-12-01T04:51:38.901Z,13.80
2022-12-01T04:54:05.938Z,14.93
2022-12-01T04:56:33.553Z,13.63
2022-12-01T04:59:00.672Z,12.82
2022-12-01T05:01:27.768Z,14.77
2022-12-01T05:03:54.547Z,14.60
2022-12-01T05:06:22.687Z,13.70
2022-12-01T05:08:49.801Z,15.20
2022-12-01T05:11:17.348Z,15.82
2022-12-01T05:13:45.143Z,15.50
2022-12-01T05:16:22.490Z,15.23
2022-12-01T05:18:50.491Z,14.45
2022-12-01T05:21:17.659Z,15.95
2022-12-01T05:23:45.773Z,15.27
2022-12-01T05:26:12.379Z,14.80
2022-12-01T05:28:40.910Z,15.85
2022-12-01T05:31:07.714Z,15.65
2022-12-01T05:33:34.422Z,14.60
2022-12-01T05:36:01.116Z,16.08
2022-12-01T05:38:27.720Z,16.13
2022-12-01T05:40:55.401Z,16.25
2022-12-01T05:43:28.715Z,15.23
2022-12-01T05:45:56.842Z,17.48
2022-12-01T05:48:23.665Z,16.08
2022-12-01T05:50:50.336Z,16.15
2022-12-01T05:53:17.567Z,16.67
2022-12-01T05:55:44.444Z,15.90
2022-12-01T05:58:11.150Z,14.73
2022-12-01T06:00:45.296Z,15.32
2022-12-01T06:03:12.652Z,16.50
2022-12-01T06:05:39.603Z,15.55
2022-12-01T06:08:06.380Z,16.08
2022-12-01T06:10:33.362Z,15.80
2022-12-01T06:13:00.030Z,14.45
2022-12-01T06:15:27.196Z,16.02
2022-12-01T06:17:53.865Z,17.55
2022-12-01T06:20:20.563Z,17.15
2022-12-01T06:22:48.273Z,16.38
2022-12-01T06:25:14.986Z,14.90
2022-12-01T06:27:41.612Z,17.50
2022-12-01T06:30:08.628Z,15.73
2022-12-01T06:32:35.378Z,16.38
2022-12-01T06:35:02.427Z,16.63
2022-12-01T06:37:29.069Z,17.05
2022-12-01T06:39:55.761Z,16.70
2022-12-01T06:42:22.762Z,17.55
2022-12-01T06:44:49.561Z,17.65
2022-12-01T06:47:16.200Z,18.70
2022-12-01T06:49:42.936Z,17.17
2022-12-01T06:52:10.093Z,18.23
2022-12-01T06:54:37.602Z,17.45
2022-12-01T06:57:04.773Z,17.65
2022-12-01T06:59:31.885Z,17.58
2022-12-01T07:01:59.136Z,18.13
2022-12-01T07:04:25.797Z,17.88
2022-12-01T07:06:52.434Z,18.85
2022-12-01T07:09:19.082Z,18.20
2022-12-01T07:11:45.808Z,18.55
2022-12-01T07:14:22.256Z,18.90
2022-12-01T07:16:48.937Z,17.52
2022-12-01T07:19:15.588Z,18.50
2022-12-01T07:21:42.278Z,18.10
2022-12-01T07:24:09.112Z,18.60
2022-12-01T07:26:35.770Z,18.45
2022-12-01T07:29:02.394Z,20.05
2022-12-01T07:31:29.016Z,18.95
2022-12-01T07:33:55.836Z,20.13
2022-12-01T07:36:22.519Z,19.58
2022-12-01T07:38:49.248Z,18.42
2022-12-01T07:41:19.142Z,20.30
2022-12-01T07:43:46.005Z,19.30
2022-12-01T07:46:23.272Z,19.25
2022-12-01T07:48:50.900Z,18.88
2022-12-01T07:51:17.776Z,19.65
2022-12-01T07:53:45.282Z,19.48
2022-12-01T07:56:11.862Z,19.92
2022-12-01T07:58:38.709Z,21.27
2022-12-01T08:01:06.549Z,18.85
2022-12-01T08:03:33.333Z,19.35
2022-12-01T08:06:00.777Z,19.65
2022-12-01T08:08:27.460Z,19.25
2022-12-01T08:10:54.067Z,18.58
2022-12-01T08:13:23.573Z,19.73
2022-12-01T08:15:50.244Z,19.67
2022-12-01T08:18:16.912Z,20.30
2022-12-01T08:20:43.536Z,19.08
2022-12-01T08:23:10.838Z,19.13
2022-12-01T08:25:42.055Z,20.48
2022-12-01T08:28:08.919Z,20.73
2022-12-01T08:30:36.022Z,21.00
2022-12-01T08:33:03.006Z,21.20
2022-12-01T08:35:29.699Z,20.50
2022-12-01T08:37:56.386Z,19.75
2022-12-01T08:40:23.095Z,21.08
2022-12-01T08:42:51.842Z,21.10
2022-12-01T08:45:18.650Z,21.42
2022-12-01T08:47:45.390Z,21.17
2022-12-01T08:50:12.125Z,19.20
2022-12-01T08:52:38.970Z,20.10
2022-12-01T08:55:05.932Z,19.52
2022-12-01T08:57:32.566Z,20.30
2022-12-01T08:59:59.208Z,21.02
2022-12-01T09:02:26.027Z,19.58
2022-12-01T09:04:52.705Z,20.20
2022-12-01T09:07:25.878Z,20.08
2022-12-01T09:09:52.992Z,19.52
2022-12-01T09:12:19.809Z,20.17
2022-12-01T09:14:48.396Z,19.63
2022-12-01T09:17:16.157Z,20.58
2022-12-01T09:19:43.352Z,20.10
2022-12-01T09:22:10.352Z,19.17
2022-12-01T09:24:37.141Z,19.58
2022-12-01T09:27:03.955Z,20.83
2022-12-01T09:29:30.704Z,20.33
2022-12-01T09:31:58.252Z,20.25
2022-12-01T09:34:26.055Z,19.15
2022-12-01T09:36:55.056Z,19.17
2022-12-01T09:39:21.772Z,19.00
2022-12-01T09:41:59.626Z,19.52
2022-12-01T09:44:26.308Z,18.85
2022-12-01T09:46:54.875Z,19.63
2022-12-01T09:49:26.572Z,19.40
2022-12-01T09:51:54.336Z,21.38
2022-12-01T09:54:21.118Z,19.70
2022-12-01T09:56:50.305Z,18.65
2022-12-01T09:59:22.509Z,19.90
2022-12-01T10:01:56.131Z,19.13
2022-12-01T10:04:27.448Z,19.65
2022-12-01T10:06:54.134Z,19.02
2022-12-01T10:09:20.735Z,19.25
2022-12-01T10:11:48.294Z,18.17
2022-12-01T10:14:20.119Z,18.95
2022-12-01T10:16:53.257Z,18.38
2022-12-01T10:19:25.980Z,19.20
2022-12-01T10:22:00.919Z,18.30
2022-12-01T10:24:27.555Z,19.35
2022-12-01T10:27:12.395Z,19.40
2022-12-01T10:29:38.973Z,19.67
2022-12-01T10:32:10.962Z,18.08
2022-12-01T10:34:39.182Z,20.02
2022-12-01T10:37:06.569Z,18.67
2022-12-01T10:39:44.178Z,19.33
2022-12-01T10:42:13.903Z,18.13
2022-12-01T10:44:40.594Z,18.15
2022-12-01T10:47:17.196Z,18.67
2022-12-01T10:49:43.967Z,19.90
2022-12-01T10:52:29.638Z,19.42
2022-12-01T10:54:56.282Z,18.70
2022-12-01T10:57:23.225Z,18.40
2022-12-01T10:59:55.764Z,19.40
2022-12-01T11:02:23.821Z,18.08
2022-12-01T11:05:07.215Z,18.48
2022-12-01T11:07:35.241Z,16.73
2022-12-01T11:10:15.148Z,17.67
2022-12-01T11:12:42.885Z,17.00
2022-12-01T11:15:18.736Z,16.80
2022-12-01T11:17:45.442Z,18.02
2022-12-01T11:20:27.534Z,18.98
2022-12-01T11:23:14.296Z,18.38
2022-12-01T11:25:41.356Z,15.70
2022-12-01T11:28:20.130Z,17.02
2022-12-01T11:30:46.768Z,16.67
2022-12-01T11:33:15.018Z,16.98
2022-12-01T11:35:46.385Z,17.88
2022-12-01T11:38:30.665Z,17.40
2022-12-01T11:40:58.068Z,16.38
2022-12-01T11:43:27.362Z,18.98
2022-12-01T11:45:55.384Z,17.48
2022-12-01T11:48:26.259Z,17.25
2022-12-01T11:51:04.123Z,17.70
2022-12-01T11:53:41.292Z,18.58
2022-12-01T11:56:16.744Z,18.20
2022-12-01T11:58:44.425Z,17.25
2022-12-01T12:01:27.133Z,16.65
2022-12-01T12:04:14.033Z,18.05
2022-12-01T12:07:03.783Z,16.42
2022-12-01T12:09:46.000Z,16.98
2022-12-01T12:12:27.303Z,16.98
2022-12-01T12:14:54.027Z,16.20
2022-12-01T12:17:20.827Z,15.77
2022-12-01T12:20:09.619Z,16.70
2022-12-01T12:22:39.580Z,16.13
2022-12-01T12:25:21.518Z,16.00
2022-12-01T12:27:51.237Z,16.02
2022-12-01T12:30:28.007Z,15.82
2022-12-01T12:33:13.445Z,15.48
2022-12-01T12:35:43.172Z,16.23
2022-12-01T12:38:28.285Z,15.20
2022-12-01T12:40:57.711Z,15.73
2022-12-01T12:43:30.402Z,15.15
2022-12-01T12:46:02.261Z,15.77
2022-12-01T12:48:41.691Z,14.85
2022-12-01T12:51:24.559Z,15.32
2022-12-01T12:54:05.482Z,15.88
2022-12-01T12:56:33.096Z,15.43
2022-12-01T12:59:11.572Z,16.05
2022-12-01T13:01:43.122Z,14.27
2022-12-01T13:04:20.438Z,13.57
2022-12-01T13:06:59.050Z,15.35
2022-12-01T13:09:31.664Z,14.13
2022-12-01T13:12:09.821Z,15.00
2022-12-01T13:14:39.326Z,14.85
2022-12-01T13:17:14.795Z,12.95
2022-12-01T13:19:43.162Z,14.57
2022-12-01T13:22:13.703Z,15.05
2022-12-01T13:24:40.757Z,14.43
2022-12-01T13:27:10.274Z,12.75
2022-12-01T13:29:43.736Z,12.98
2022-12-01T13:32:25.997Z,13.75
2022-12-01T13:34:52.942Z,14.45
2022-12-01T13:37:45.886Z,14.25
2022-12-01T13:40:21.894Z,13.65
2022-12-01T13:43:15.579Z,14.68
2022-12-01T13:45:42.342Z,15.70
2022-12-01T13:48:27.758Z,13.02
2022-12-01T13:51:04.111Z,14.65
2022-12-01T13:53:32.323Z,15.55
2022-12-01T13:55:58.973Z,13.70
2022-12-01T13:58:40.176Z,13.63
2022-12-01T14:01:22.832Z,14.70
2022-12-01T14:03:53.981Z,14.02
2022-12-01T14:06:26.589Z,13.65
2022-12-01T14:09:16.355Z,14.07
2022-12-01T14:11:54.476Z,13.63
2022-12-01T14:14:26.162Z,13.25
2022-12-01T14:16:54.215Z,13.55
2022-12-01T14:19:34.526Z,13.02
2022-12-01T14:22:01.645Z,13.52
2022-12-01T14:24:34.794Z,13.48
2022-12-01T14:27:02.347Z,12.90
2022-12-01T14:29:30.914Z,14.07
2022-12-01T14:32:00.584Z,14.63
2022-12-01T14:34:30.108Z,12.95
2022-12-01T14:37:06.044Z,13.05
2022-12-01T14:39:34.456Z,12.88
2022-12-01T14:42:11.891Z,12.75
2022-12-01T14:44:47.851Z,13.30
2022-12-01T14:47:27.713Z,12.00
2022-12-01T14:50:12.328Z,13.15
2022-12-01T14:52:42.315Z,13.70
2022-12-01T14:55:16.551Z,12.30
2022-12-01T14:57:45.603Z,13.25
2022-12-01T15:00:17.127Z,13.25
2022-12-01T15:02:48.986Z,13.82
2022-12-01T15:05:17.654Z,13.63
2022-12-01T15:07:47.581Z,12.65
2022-12-01T15:10:22.168Z,13.00
2022-12-01T15:12:49.214Z,13.23
2022-12-01T15:15:23.953Z,13.50
2022-12-01T15:17:51.683Z,12.50
2022-12-01T15:20:27.411Z,13.82
2022-12-01T15:22:54.531Z,13.55
2022-12-01T15:25:21.352Z,13.43
2022-12-01T15:28:01.125Z,13.35
2022-12-01T15:30:27.859Z,13.60
2022-12-01T15:32:54.533Z,12.45
2022-12-01T15:35:22.564Z,13.50
2022-12-01T15:37:50.032Z,13.55
2022-12-01T15:43:06.408Z,13.80
2022-12-01T15:45:42.179Z,15.07
2022-12-01T15:48:24.858Z,14.02
2022-12-01T15:51:03.071Z,13.50
2022-12-01T15:53:33.178Z,13.45
2022-12-01T15:56:01.478Z,13.95
2022-12-01T15:58:32.040Z,14.30
2022-12-01T16:01:00.079Z,12.98
2022-12-01T16:03:27.241Z,13.63
2022-12-01T16:05:54.390Z,14.00
2022-12-01T16:08:22.877Z,15.18
2022-12-01T16:11:08.013Z,13.85
2022-12-01T16:13:49.776Z,14.73
2022-12-01T16:16:30.925Z,13.52
2022-12-01T16:18:59.378Z,13.48
2022-12-01T16:21:26.391Z,13.15
2022-12-01T16:24:03.692Z,13.45
2022-12-01T16:26:31.215Z,13.38
2022-12-01T16:28:58.416Z,13.48
2022-12-01T16:31:25.869Z,14.27
2022-12-01T16:34:14.011Z,15.75
2022-12-01T16:36:50.189Z,14.70
2022-12-01T16:39:16.848Z,16.10
2022-12-01T16:41:44.836Z,16.88
2022-12-01T16:44:28.006Z,16.25
2022-12-01T16:46:55.378Z,15.32
2022-12-01T16:49:22.116Z,14.93
2022-12-01T16:51:57.185Z,14.63
2022-12-01T16:54:24.323Z,15.80
2022-12-01T16:56:51.329Z,15.55
2022-12-01T16:59:18.017Z,15.40
2022-12-01T17:01:44.717Z,15.05
2022-12-01T17:04:11.502Z,16.08
2022-12-01T17:06:38.477Z,15.98
2022-12-01T17:09:05.741Z,16.13
2022-12-01T17:11:32.552Z,15.75
2022-12-01T17:13:59.178Z,17.20
2022-12-01T17:16:25.885Z,15.95
2022-12-01T17:18:52.660Z,16.35
2022-12-01T17:21:19.335Z,16.80
2022-12-01T17:23:46.117Z,17.85
2022-12-01T17:26:14.126Z,15.50
2022-12-01T17:28:40.847Z,15.40
2022-12-01T17:31:07.898Z,17.23
2022-12-01T17:33:35.208Z,17.75
2022-12-01T17:36:03.789Z,16.20
2022-12-01T17:38:30.518Z,15.55
2022-12-01T17:41:00.676Z,16.33
2022-12-01T17:43:27.775Z,16.85
2022-12-01T17:45:54.444Z,16.40
2022-12-01T17:48:21.051Z,16.65
2022-12-01T17:50:47.759Z,16.05
2022-12-01T17:53:14.477Z,15.77
2022-12-01T17:55:41.179Z,15.95
2022-12-01T17:58:07.900Z,16.90
2022-12-01T18:00:34.580Z,16.23
2022-12-01T18:03:01.205Z,15.65
2022-12-01T18:05:29.402Z,15.82
2022-12-01T18:07:56.211Z,15.30
2022-12-01T18:10:22.873Z,16.27
2022-12-01T18:12:49.698Z,15.68
2022-12-01T18:15:17.442Z,14.48
2022-12-01T18:17:44.937Z,14.68
2022-12-01T18:20:11.775Z,15.20
2022-12-01T18:22:38.472Z,15.20
2022-12-01T18:25:05.294Z,15.23
2022-12-01T18:27:31.894Z,14.25
2022-12-01T18:29:58.523Z,14.32
2022-12-01T18:32:25.229Z,14.63
2022-12-01T18:34:52.284Z,14.63
2022-12-01T18:37:19.158Z,13.30
2022-12-01T18:39:46.153Z,13.52
2022-12-01T18:42:12.830Z,13.77
2022-12-01T18:44:39.460Z,14.38
2022-12-01T18:47:06.641Z,13.38
2022-12-01T18:49:33.378Z,15.45
2022-12-01T18:52:00.379Z,12.40
2022-12-01T18:54:27.030Z,13.93
2022-12-01T18:56:55.096Z,12.60
2022-12-01T18:59:21.820Z,13.02
2022-12-01T19:01:48.701Z,11.13
2022-12-01T19:04:15.840Z,11.38
2022-12-01T19:06:43.427Z,10.95
2022-12-01T19:09:11.512Z,11.45
2022-12-01T19:11:40.383Z,10.82
2022-12-01T19:14:08.491Z,11.18
2022-12-01T19:16:35.305Z,11.52
2022-12-01T19:19:02.126Z,11.25
2022-12-01T19:21:28.874Z,11.73
2022-12-01T19:23:56.443Z,11.88
2022-12-01T19:26:23.138Z,11.82
2022-12-01T19:28:49.888Z,10.93
2022-12-01T19:31:18.417Z,11.35
2022-12-01T19:33:45.755Z,9.90
2022-12-01T19:36:13.578Z,10.77
2022-12-01T19:38:40.604Z,9.43
2022-12-01T19:41:07.887Z,9.70
2022-12-01T19:43:34.965Z,10.35
2022-12-01T19:46:08.736Z,10.98
2022-12-01T19:48:35.683Z,9.20
2022-12-01T19:51:02.859Z,10.02
2022-12-01T19:53:33.550Z,10.02
2022-12-01T19:56:02.093Z,9.90
2022-12-01T19:58:28.813Z,9.70
2022-12-01T20:00:55.585Z,9.38
2022-12-01T20:03:22.230Z,10.43
2022-12-01T20:05:48.884Z,10.07
2022-12-01T20:08:15.487Z,10.30
2022-12-01T20:10:48.601Z,9.60
2022-12-01T20:13:15.234Z,10.40
2022-12-01T20:15:42.092Z,9.88
2022-12-01T20:18:08.891Z,9.40
2022-12-01T20:20:35.618Z,10.07
2022-12-01T20:23:02.298Z,9.70
2022-12-01T20:25:29.241Z,9.77
2022-12-01T20:27:55.847Z,10.05
2022-12-01T20:30:22.499Z,10.60
2022-12-01T20:32:49.099Z,10.93
2022-12-01T20:35:15.852Z,11.55
2022-12-01T20:37:42.464Z,10.57
2022-12-01T20:40:09.406Z,10.65
2022-12-01T20:42:39.631Z,11.57
2022-12-01T20:45:06.779Z,11.20
2022-12-01T20:47:36.635Z,11.02
2022-12-01T20:50:05.024Z,10.60
2022-12-01T20:52:31.684Z,10.73
2022-12-01T20:54:58.310Z,11.43
2022-12-01T20:57:24.941Z,11.38
2022-12-01T20:59:51.524Z,10.32
2022-12-01T21:02:18.260Z,11.88
2022-12-01T21:04:44.925Z,11.35
2022-12-01T21:07:11.654Z,12.55
2022-12-01T21:09:38.537Z,11.85
2022-12-01T21:12:29.829Z,11.70
2022-12-01T21:15:16.661Z,11.13
2022-12-01T21:18:03.586Z,11.85
2022-12-01T21:20:31.717Z,11.15
2022-12-01T21:23:02.552Z,12.40
2022-12-01T21:25:29.237Z,12.13
2022-12-01T21:27:58.098Z,11.73
2022-12-01T21:30:29.938Z,11.32
2022-12-01T21:33:08.955Z,11.88
2022-12-01T21:35:35.575Z,11.65
2022-12-01T21:38:04.435Z,12.40
2022-12-01T21:40:31.089Z,13.13
2022-12-01T21:43:01.503Z,12.63
2022-12-01T21:45:29.087Z,11.95
2022-12-01T21:47:59.865Z,13.50
2022-12-01T21:50:27.322Z,12.77
2022-12-01T21:52:53.978Z,13.55
2022-12-01T21:55:20.617Z,13.80
2022-12-01T21:57:48.394Z,12.10
2022-12-01T22:00:27.219Z,14.10
2022-12-01T22:03:09.982Z,13.40
2022-12-01T22:05:41.918Z,13.85
2022-12-01T22:08:14.667Z,14.65
2022-12-01T22:10:50.115Z,14.38
2022-12-01T22:13:16.713Z,14.52
2022-12-01T22:15:43.371Z,12.77
2022-12-01T22:18:19.764Z,13.77
2022-12-01T22:20:46.329Z,13.73
2022-12-01T22:23:13.376Z,14.05
2022-12-01T22:25:41.136Z,14.73
2022-12-01T22:28:15.201Z,14.57
2022-12-01T22:30:42.072Z,12.07
2022-12-01T22:33:35.148Z,12.32
2022-12-01T22:36:01.734Z,11.63
2022-12-01T22:38:28.300Z,11.52
2022-12-01T22:41:02.707Z,11.50
2022-12-01T22:43:32.238Z,11.15
2022-12-01T22:46:17.943Z,11.55
2022-12-01T22:48:44.639Z,11.30
2022-12-01T22:51:14.476Z,12.68
2022-12-01T22:53:41.811Z,12.23
2022-12-01T22:56:20.625Z,11.63
2022-12-01T22:58:47.430Z,12.30
2022-12-01T23:01:22.560Z,11.90
2022-12-01T23:03:49.418Z,11.68
2022-12-01T23:06:34.953Z,12.18
2022-12-01T23:09:01.856Z,12.18
2022-12-01T23:11:28.627Z,12.07
2022-12-01T23:13:55.260Z,12.27
2022-12-01T23:16:21.887Z,12.20
2022-12-01T23:18:48.529Z,11.55
2022-12-01T23:21:15.676Z,12.15
2022-12-01T23:23:42.320Z,12.55
2022-12-01T23:26:09.104Z,11.95
2022-12-01T23:28:36.926Z,12.13
2022-12-01T23:31:03.638Z,11.50
2022-12-01T23:33:32.059Z,12.13
2022-12-01T23:36:06.652Z,11.20
2022-12-01T23:38:38.614Z,12.80
2022-12-01T23:41:06.325Z,14.35
2022-12-01T23:43:34.795Z,14.15
2022-12-01T23:46:07.531Z,13.55
2022-12-01T23:48:37.316Z,13.93
2022-12-01T23:51:04.321Z,14.73
2022-12-01T23:53:32.514Z,15.25
2022-12-01T23:56:05.290Z,16.05
2022-12-01T23:58:32.228Z,14.70
